Current Weather

Gondia Arpt/Birsi

Gondia Arpt/Birsi, India (VAGD)

Report from: Thursday, April 25, 2024 4:00 AM UTC
Current time: Thursday, April 25, 2024 4:28 AM UTC

Nearby weather – Weather history – Daily summaries
Weather forecast

Present weatherHaze
Temperature33.0°C (91.4°F)
Heat index42.2°C (107.9°F)
Dew point26.0°C (78.8°F)
Winds 1 kts (0.5 m/s, 1.2 mph) South (180°)
Visibility3.1 mi. (5 km)
Altimeter29.83 in.Hg (1010 mB)
Relative humidity67 %
Density altitude2,606 ft. (794 m)
Remarks No significant changes expected in the next two hours
Flight conditions Marginal Visual Meteorological Conditions
Raw dataVAGD 250400Z 18001KT 5000 HZ NSC 33/26 Q1010 NOSIG
An error has occurred. This application may no longer respond until reloaded. Reload 🗙